sensor_id;sensor_type;location;lat;lon;timestamp;P1;durP1;ratioP1;P2;durP2;ratioP2
67839;SDS011;54636;51.684;5.142;2023-04-24T00:01:26;8.52;;;7.85;;
67839;SDS011;54636;51.684;5.142;2023-04-24T00:03:54;9.98;;;8.98;;
67839;SDS011;54636;51.684;5.142;2023-04-24T00:06:19;13.02;;;10.02;;
67839;SDS011;54636;51.684;5.142;2023-04-24T00:08:45;8.75;;;7.80;;
67839;SDS011;54636;51.684;5.142;2023-04-24T00:11:10;13.75;;;12.30;;
67839;SDS011;54636;51.684;5.142;2023-04-24T00:13:36;11.43;;;10.00;;
67839;SDS011;54636;51.684;5.142;2023-04-24T00:16:02;15.85;;;14.15;;
67839;SDS011;54636;51.684;5.142;2023-04-24T00:18:28;17.00;;;13.80;;
67839;SDS011;54636;51.684;5.142;2023-04-24T00:20:53;12.82;;;10.75;;
67839;SDS011;54636;51.684;5.142;2023-04-24T00:23:18;19.23;;;15.00;;
67839;SDS011;54636;51.684;5.142;2023-04-24T00:25:44;23.65;;;15.90;;
67839;SDS011;54636;51.684;5.142;2023-04-24T00:28:09;21.88;;;16.80;;
67839;SDS011;54636;51.684;5.142;2023-04-24T00:30:34;19.55;;;16.67;;
67839;SDS011;54636;51.684;5.142;2023-04-24T00:33:00;19.80;;;15.25;;
67839;SDS011;54636;51.684;5.142;2023-04-24T00:35:26;17.17;;;13.88;;
67839;SDS011;54636;51.684;5.142;2023-04-24T00:37:51;13.20;;;9.65;;
67839;SDS011;54636;51.684;5.142;2023-04-24T00:40:17;20.80;;;17.90;;
67839;SDS011;54636;51.684;5.142;2023-04-24T00:42:43;23.27;;;17.45;;
67839;SDS011;54636;51.684;5.142;2023-04-24T00:45:08;27.40;;;19.33;;
67839;SDS011;54636;51.684;5.142;2023-04-24T00:47:34;24.65;;;17.10;;
67839;SDS011;54636;51.684;5.142;2023-04-24T00:50:03;18.70;;;15.07;;
67839;SDS011;54636;51.684;5.142;2023-04-24T00:52:29;24.33;;;17.23;;
67839;SDS011;54636;51.684;5.142;2023-04-24T00:54:57;20.70;;;17.75;;
67839;SDS011;54636;51.684;5.142;2023-04-24T00:57:22;16.25;;;13.73;;
67839;SDS011;54636;51.684;5.142;2023-04-24T00:59:48;21.75;;;15.90;;
67839;SDS011;54636;51.684;5.142;2023-04-24T01:02:15;15.88;;;14.18;;
67839;SDS011;54636;51.684;5.142;2023-04-24T01:04:40;17.40;;;13.15;;
67839;SDS011;54636;51.684;5.142;2023-04-24T01:07:06;19.02;;;15.07;;
67839;SDS011;54636;51.684;5.142;2023-04-24T01:09:35;19.15;;;16.52;;
67839;SDS011;54636;51.684;5.142;2023-04-24T01:12:03;17.38;;;15.48;;
67839;SDS011;54636;51.684;5.142;2023-04-24T01:14:28;16.15;;;14.30;;
67839;SDS011;54636;51.684;5.142;2023-04-24T01:16:55;25.58;;;18.30;;
67839;SDS011;54636;51.684;5.142;2023-04-24T01:19:22;21.60;;;18.13;;
67839;SDS011;54636;51.684;5.142;2023-04-24T01:21:48;17.90;;;15.85;;
67839;SDS011;54636;51.684;5.142;2023-04-24T01:24:18;18.83;;;16.83;;
67839;SDS011;54636;51.684;5.142;2023-04-24T01:26:44;18.88;;;16.88;;
67839;SDS011;54636;51.684;5.142;2023-04-24T01:29:10;22.02;;;18.77;;
67839;SDS011;54636;51.684;5.142;2023-04-24T01:31:36;19.13;;;17.08;;
67839;SDS011;54636;51.684;5.142;2023-04-24T01:34:02;13.30;;;12.00;;
67839;SDS011;54636;51.684;5.142;2023-04-24T01:36:27;19.83;;;17.55;;
67839;SDS011;54636;51.684;5.142;2023-04-24T01:38:54;19.13;;;15.68;;
67839;SDS011;54636;51.684;5.142;2023-04-24T01:41:19;17.08;;;15.40;;
67839;SDS011;54636;51.684;5.142;2023-04-24T01:43:46;17.40;;;14.55;;
67839;SDS011;54636;51.684;5.142;2023-04-24T01:46:11;14.85;;;12.52;;
67839;SDS011;54636;51.684;5.142;2023-04-24T01:48:36;15.15;;;13.55;;
67839;SDS011;54636;51.684;5.142;2023-04-24T01:51:02;13.15;;;11.73;;
67839;SDS011;54636;51.684;5.142;2023-04-24T01:53:27;12.57;;;11.40;;
67839;SDS011;54636;51.684;5.142;2023-04-24T01:55:53;11.82;;;10.68;;
67839;SDS011;54636;51.684;5.142;2023-04-24T01:58:18;19.00;;;15.00;;
67839;SDS011;54636;51.684;5.142;2023-04-24T02:00:44;13.05;;;11.68;;
67839;SDS011;54636;51.684;5.142;2023-04-24T02:03:09;10.18;;;9.18;;
67839;SDS011;54636;51.684;5.142;2023-04-24T02:05:35;15.88;;;13.90;;
67839;SDS011;54636;51.684;5.142;2023-04-24T02:08:00;18.45;;;15.20;;
67839;SDS011;54636;51.684;5.142;2023-04-24T02:10:25;20.45;;;14.68;;
67839;SDS011;54636;51.684;5.142;2023-04-24T02:12:51;16.83;;;14.15;;
67839;SDS011;54636;51.684;5.142;2023-04-24T02:15:16;21.02;;;14.05;;
67839;SDS011;54636;51.684;5.142;2023-04-24T02:17:42;19.05;;;13.60;;
67839;SDS011;54636;51.684;5.142;2023-04-24T02:20:08;18.80;;;15.63;;
67839;SDS011;54636;51.684;5.142;2023-04-24T02:22:33;15.60;;;12.68;;
67839;SDS011;54636;51.684;5.142;2023-04-24T02:24:59;16.40;;;14.32;;
67839;SDS011;54636;51.684;5.142;2023-04-24T02:27:25;16.90;;;12.30;;
67839;SDS011;54636;51.684;5.142;2023-04-24T02:29:50;18.30;;;14.63;;
67839;SDS011;54636;51.684;5.142;2023-04-24T02:32:15;24.52;;;13.98;;
67839;SDS011;54636;51.684;5.142;2023-04-24T02:34:41;18.23;;;13.23;;
67839;SDS011;54636;51.684;5.142;2023-04-24T02:37:06;16.73;;;10.75;;
67839;SDS011;54636;51.684;5.142;2023-04-24T02:39:32;13.77;;;12.32;;
67839;SDS011;54636;51.684;5.142;2023-04-24T02:41:57;23.88;;;13.00;;
67839;SDS011;54636;51.684;5.142;2023-04-24T02:44:23;15.07;;;12.35;;
67839;SDS011;54636;51.684;5.142;2023-04-24T02:46:48;19.15;;;12.27;;
67839;SDS011;54636;51.684;5.142;2023-04-24T02:49:13;19.60;;;11.93;;
67839;SDS011;54636;51.684;5.142;2023-04-24T02:51:39;16.17;;;11.35;;
67839;SDS011;54636;51.684;5.142;2023-04-24T02:54:06;20.08;;;14.05;;
67839;SDS011;54636;51.684;5.142;2023-04-24T02:56:33;24.45;;;15.15;;
67839;SDS011;54636;51.684;5.142;2023-04-24T02:58:58;16.77;;;13.38;;
67839;SDS011;54636;51.684;5.142;2023-04-24T03:01:24;18.52;;;15.75;;
67839;SDS011;54636;51.684;5.142;2023-04-24T03:03:50;16.88;;;13.60;;
67839;SDS011;54636;51.684;5.142;2023-04-24T03:06:15;21.15;;;14.15;;
67839;SDS011;54636;51.684;5.142;2023-04-24T03:08:40;17.27;;;10.05;;
67839;SDS011;54636;51.684;5.142;2023-04-24T03:11:06;23.60;;;15.30;;
67839;SDS011;54636;51.684;5.142;2023-04-24T03:13:31;19.42;;;15.68;;
67839;SDS011;54636;51.684;5.142;2023-04-24T03:15:57;17.88;;;11.15;;
67839;SDS011;54636;51.684;5.142;2023-04-24T03:18:22;19.17;;;14.90;;
67839;SDS011;54636;51.684;5.142;2023-04-24T03:20:47;16.67;;;11.68;;
67839;SDS011;54636;51.684;5.142;2023-04-24T03:23:13;16.40;;;12.80;;
67839;SDS011;54636;51.684;5.142;2023-04-24T03:25:39;19.77;;;13.55;;
67839;SDS011;54636;51.684;5.142;2023-04-24T03:28:05;24.05;;;14.75;;
67839;SDS011;54636;51.684;5.142;2023-04-24T03:30:31;20.05;;;13.48;;
67839;SDS011;54636;51.684;5.142;2023-04-24T03:32:56;16.23;;;10.60;;
67839;SDS011;54636;51.684;5.142;2023-04-24T03:35:21;20.30;;;14.32;;
67839;SDS011;54636;51.684;5.142;2023-04-24T03:37:47;12.40;;;10.32;;
67839;SDS011;54636;51.684;5.142;2023-04-24T03:40:12;17.42;;;13.63;;
67839;SDS011;54636;51.684;5.142;2023-04-24T03:42:38;12.10;;;10.38;;
67839;SDS011;54636;51.684;5.142;2023-04-24T03:45:04;17.15;;;11.43;;
67839;SDS011;54636;51.684;5.142;2023-04-24T03:47:30;13.55;;;12.05;;
67839;SDS011;54636;51.684;5.142;2023-04-24T03:49:55;15.70;;;12.85;;
67839;SDS011;54636;51.684;5.142;2023-04-24T03:52:21;18.90;;;10.68;;
67839;SDS011;54636;51.684;5.142;2023-04-24T03:54:46;14.80;;;10.02;;
67839;SDS011;54636;51.684;5.142;2023-04-24T03:57:11;16.60;;;12.52;;
67839;SDS011;54636;51.684;5.142;2023-04-24T03:59:37;10.48;;;8.45;;
67839;SDS011;54636;51.684;5.142;2023-04-24T04:02:02;10.00;;;8.90;;
67839;SDS011;54636;51.684;5.142;2023-04-24T04:04:27;11.63;;;10.43;;
67839;SDS011;54636;51.684;5.142;2023-04-24T04:06:53;10.23;;;9.27;;
67839;SDS011;54636;51.684;5.142;2023-04-24T04:09:18;12.63;;;9.65;;
67839;SDS011;54636;51.684;5.142;2023-04-24T04:11:44;17.05;;;10.75;;
67839;SDS011;54636;51.684;5.142;2023-04-24T04:14:09;12.52;;;10.07;;
67839;SDS011;54636;51.684;5.142;2023-04-24T04:16:34;8.27;;;7.47;;
67839;SDS011;54636;51.684;5.142;2023-04-24T04:19:01;8.75;;;7.53;;
67839;SDS011;54636;51.684;5.142;2023-04-24T04:21:28;18.88;;;9.07;;
67839;SDS011;54636;51.684;5.142;2023-04-24T04:23:53;9.73;;;8.73;;
67839;SDS011;54636;51.684;5.142;2023-04-24T04:26:19;10.55;;;8.00;;
67839;SDS011;54636;51.684;5.142;2023-04-24T04:28:46;7.20;;;5.88;;
67839;SDS011;54636;51.684;5.142;2023-04-24T04:31:12;5.30;;;4.97;;
67839;SDS011;54636;51.684;5.142;2023-04-24T04:33:38;8.23;;;5.30;;
67839;SDS011;54636;51.684;5.142;2023-04-24T04:36:04;5.38;;;4.55;;
67839;SDS011;54636;51.684;5.142;2023-04-24T04:38:30;3.85;;;3.65;;
67839;SDS011;54636;51.684;5.142;2023-04-24T04:40:57;3.53;;;3.30;;
67839;SDS011;54636;51.684;5.142;2023-04-24T04:43:23;3.47;;;3.08;;
67839;SDS011;54636;51.684;5.142;2023-04-24T04:45:49;2.65;;;2.45;;
67839;SDS011;54636;51.684;5.142;2023-04-24T04:48:16;2.78;;;2.58;;
67839;SDS011;54636;51.684;5.142;2023-04-24T04:50:42;4.20;;;2.28;;
67839;SDS011;54636;51.684;5.142;2023-04-24T04:53:08;1.80;;;1.70;;
67839;SDS011;54636;51.684;5.142;2023-04-24T04:55:33;2.10;;;1.95;;
67839;SDS011;54636;51.684;5.142;2023-04-24T04:57:59;2.10;;;2.00;;
67839;SDS011;54636;51.684;5.142;2023-04-24T05:00:25;1.92;;;1.70;;
67839;SDS011;54636;51.684;5.142;2023-04-24T05:02:51;2.33;;;2.13;;
67839;SDS011;54636;51.684;5.142;2023-04-24T05:05:16;5.25;;;2.08;;
67839;SDS011;54636;51.684;5.142;2023-04-24T05:07:42;3.40;;;2.22;;
67839;SDS011;54636;51.684;5.142;2023-04-24T05:10:08;2.80;;;2.42;;
67839;SDS011;54636;51.684;5.142;2023-04-24T05:12:34;3.25;;;2.50;;
67839;SDS011;54636;51.684;5.142;2023-04-24T05:14:59;3.83;;;2.78;;
67839;SDS011;54636;51.684;5.142;2023-04-24T05:17:25;2.03;;;1.92;;
67839;SDS011;54636;51.684;5.142;2023-04-24T05:19:50;4.38;;;2.70;;
67839;SDS011;54636;51.684;5.142;2023-04-24T05:22:16;6.50;;;3.08;;
67839;SDS011;54636;51.684;5.142;2023-04-24T05:24:43;11.23;;;3.92;;
67839;SDS011;54636;51.684;5.142;2023-04-24T05:27:08;3.75;;;3.30;;
67839;SDS011;54636;51.684;5.142;2023-04-24T05:29:34;3.40;;;3.13;;
67839;SDS011;54636;51.684;5.142;2023-04-24T05:32:00;3.90;;;3.58;;
67839;SDS011;54636;51.684;5.142;2023-04-24T05:34:26;6.40;;;4.03;;
67839;SDS011;54636;51.684;5.142;2023-04-24T05:36:51;5.43;;;4.93;;
67839;SDS011;54636;51.684;5.142;2023-04-24T05:39:18;4.65;;;4.25;;
67839;SDS011;54636;51.684;5.142;2023-04-24T05:41:44;4.45;;;4.03;;
67839;SDS011;54636;51.684;5.142;2023-04-24T05:44:10;5.75;;;3.80;;
67839;SDS011;54636;51.684;5.142;2023-04-24T05:46:35;4.63;;;3.88;;
67839;SDS011;54636;51.684;5.142;2023-04-24T05:49:00;5.60;;;4.25;;
67839;SDS011;54636;51.684;5.142;2023-04-24T05:51:27;7.10;;;3.97;;
67839;SDS011;54636;51.684;5.142;2023-04-24T05:53:52;4.40;;;4.03;;
67839;SDS011;54636;51.684;5.142;2023-04-24T05:56:18;4.43;;;4.03;;
67839;SDS011;54636;51.684;5.142;2023-04-24T05:58:44;5.20;;;3.70;;
67839;SDS011;54636;51.684;5.142;2023-04-24T06:01:10;5.50;;;4.13;;
67839;SDS011;54636;51.684;5.142;2023-04-24T06:03:36;4.95;;;4.57;;
67839;SDS011;54636;51.684;5.142;2023-04-24T06:06:01;5.28;;;4.05;;
67839;SDS011;54636;51.684;5.142;2023-04-24T06:08:26;7.45;;;4.43;;
67839;SDS011;54636;51.684;5.142;2023-04-24T06:10:52;5.03;;;3.67;;
67839;SDS011;54636;51.684;5.142;2023-04-24T06:13:17;4.05;;;3.13;;
67839;SDS011;54636;51.684;5.142;2023-04-24T06:15:43;2.67;;;2.47;;
67839;SDS011;54636;51.684;5.142;2023-04-24T06:18:09;6.15;;;4.25;;
67839;SDS011;54636;51.684;5.142;2023-04-24T06:20:37;8.18;;;4.97;;
67839;SDS011;54636;51.684;5.142;2023-04-24T06:23:03;7.57;;;5.13;;
67839;SDS011;54636;51.684;5.142;2023-04-24T06:25:28;8.82;;;5.35;;
67839;SDS011;54636;51.684;5.142;2023-04-24T06:27:54;7.45;;;5.57;;
67839;SDS011;54636;51.684;5.142;2023-04-24T06:30:20;7.90;;;5.65;;
67839;SDS011;54636;51.684;5.142;2023-04-24T06:32:45;6.30;;;5.60;;
67839;SDS011;54636;51.684;5.142;2023-04-24T06:35:11;8.48;;;5.68;;
67839;SDS011;54636;51.684;5.142;2023-04-24T06:37:37;5.88;;;5.15;;
67839;SDS011;54636;51.684;5.142;2023-04-24T06:40:04;9.80;;;6.68;;
67839;SDS011;54636;51.684;5.142;2023-04-24T06:42:30;19.13;;;7.85;;
67839;SDS011;54636;51.684;5.142;2023-04-24T06:44:56;13.52;;;7.80;;
67839;SDS011;54636;51.684;5.142;2023-04-24T06:47:21;19.95;;;9.65;;
67839;SDS011;54636;51.684;5.142;2023-04-24T06:49:47;15.30;;;9.45;;
67839;SDS011;54636;51.684;5.142;2023-04-24T06:52:15;15.45;;;9.52;;
67839;SDS011;54636;51.684;5.142;2023-04-24T06:54:41;20.73;;;10.73;;
67839;SDS011;54636;51.684;5.142;2023-04-24T06:57:07;20.00;;;9.95;;
67839;SDS011;54636;51.684;5.142;2023-04-24T06:59:33;18.30;;;7.40;;
67839;SDS011;54636;51.684;5.142;2023-04-24T07:01:58;17.88;;;9.50;;
67839;SDS011;54636;51.684;5.142;2023-04-24T07:04:24;14.75;;;8.27;;
67839;SDS011;54636;51.684;5.142;2023-04-24T07:06:50;19.25;;;9.82;;
67839;SDS011;54636;51.684;5.142;2023-04-24T07:09:16;26.65;;;11.18;;
67839;SDS011;54636;51.684;5.142;2023-04-24T07:11:43;16.98;;;9.60;;
67839;SDS011;54636;51.684;5.142;2023-04-24T07:14:09;11.27;;;7.00;;
67839;SDS011;54636;51.684;5.142;2023-04-24T07:16:38;11.77;;;7.80;;
67839;SDS011;54636;51.684;5.142;2023-04-24T07:19:03;14.30;;;6.95;;
67839;SDS011;54636;51.684;5.142;2023-04-24T07:21:29;16.48;;;6.88;;
67839;SDS011;54636;51.684;5.142;2023-04-24T07:23:56;13.98;;;6.38;;
67839;SDS011;54636;51.684;5.142;2023-04-24T07:26:25;18.30;;;5.97;;
67839;SDS011;54636;51.684;5.142;2023-04-24T07:28:51;19.85;;;6.55;;
67839;SDS011;54636;51.684;5.142;2023-04-24T07:31:16;18.80;;;6.13;;
67839;SDS011;54636;51.684;5.142;2023-04-24T07:33:41;23.95;;;6.68;;
67839;SDS011;54636;51.684;5.142;2023-04-24T07:36:07;13.32;;;4.95;;
67839;SDS011;54636;51.684;5.142;2023-04-24T07:38:32;19.17;;;6.25;;
67839;SDS011;54636;51.684;5.142;2023-04-24T07:40:58;18.40;;;6.22;;
67839;SDS011;54636;51.684;5.142;2023-04-24T07:43:23;18.27;;;4.97;;
67839;SDS011;54636;51.684;5.142;2023-04-24T07:45:52;19.25;;;6.55;;
67839;SDS011;54636;51.684;5.142;2023-04-24T07:48:17;20.02;;;5.35;;
67839;SDS011;54636;51.684;5.142;2023-04-24T07:50:43;20.33;;;4.50;;
67839;SDS011;54636;51.684;5.142;2023-04-24T07:53:09;20.42;;;5.90;;
67839;SDS011;54636;51.684;5.142;2023-04-24T07:55:35;22.38;;;5.90;;
67839;SDS011;54636;51.684;5.142;2023-04-24T07:58:01;20.98;;;6.00;;
67839;SDS011;54636;51.684;5.142;2023-04-24T08:00:26;20.25;;;6.88;;
67839;SDS011;54636;51.684;5.142;2023-04-24T08:02:51;21.33;;;5.40;;
67839;SDS011;54636;51.684;5.142;2023-04-24T08:05:17;23.88;;;6.28;;
67839;SDS011;54636;51.684;5.142;2023-04-24T08:07:43;21.75;;;5.85;;
67839;SDS011;54636;51.684;5.142;2023-04-24T08:10:10;24.92;;;7.35;;
67839;SDS011;54636;51.684;5.142;2023-04-24T08:12:36;15.73;;;5.18;;
67839;SDS011;54636;51.684;5.142;2023-04-24T08:15:02;22.20;;;5.10;;
67839;SDS011;54636;51.684;5.142;2023-04-24T08:17:28;17.38;;;4.85;;
67839;SDS011;54636;51.684;5.142;2023-04-24T08:19:53;19.80;;;4.57;;
67839;SDS011;54636;51.684;5.142;2023-04-24T08:22:26;20.98;;;5.53;;
67839;SDS011;54636;51.684;5.142;2023-04-24T08:24:52;16.38;;;4.40;;
67839;SDS011;54636;51.684;5.142;2023-04-24T08:27:18;22.75;;;4.38;;
67839;SDS011;54636;51.684;5.142;2023-04-24T08:29:43;14.55;;;3.63;;
67839;SDS011;54636;51.684;5.142;2023-04-24T08:32:09;15.73;;;3.92;;
67839;SDS011;54636;51.684;5.142;2023-04-24T08:34:34;19.35;;;4.20;;
67839;SDS011;54636;51.684;5.142;2023-04-24T08:36:59;18.85;;;4.53;;
67839;SDS011;54636;51.684;5.142;2023-04-24T08:39:25;19.48;;;4.70;;
67839;SDS011;54636;51.684;5.142;2023-04-24T08:41:50;22.30;;;3.92;;
67839;SDS011;54636;51.684;5.142;2023-04-24T08:44:17;11.40;;;3.17;;
67839;SDS011;54636;51.684;5.142;2023-04-24T08:46:44;11.43;;;3.42;;
67839;SDS011;54636;51.684;5.142;2023-04-24T08:49:13;10.27;;;3.45;;
67839;SDS011;54636;51.684;5.142;2023-04-24T08:51:41;10.88;;;3.45;;
67839;SDS011;54636;51.684;5.142;2023-04-24T08:54:07;14.35;;;3.80;;
67839;SDS011;54636;51.684;5.142;2023-04-24T08:56:33;7.80;;;2.22;;
67839;SDS011;54636;51.684;5.142;2023-04-24T08:59:03;12.20;;;2.38;;
67839;SDS011;54636;51.684;5.142;2023-04-24T09:01:29;18.17;;;3.42;;
67839;SDS011;54636;51.684;5.142;2023-04-24T09:03:58;10.77;;;2.88;;
67839;SDS011;54636;51.684;5.142;2023-04-24T09:06:27;12.85;;;3.58;;
67839;SDS011;54636;51.684;5.142;2023-04-24T09:08:53;15.00;;;3.53;;
67839;SDS011;54636;51.684;5.142;2023-04-24T09:11:20;17.45;;;4.72;;
67839;SDS011;54636;51.684;5.142;2023-04-24T09:13:48;12.27;;;3.22;;
67839;SDS011;54636;51.684;5.142;2023-04-24T09:16:14;13.55;;;2.47;;
67839;SDS011;54636;51.684;5.142;2023-04-24T09:18:40;8.25;;;2.20;;
67839;SDS011;54636;51.684;5.142;2023-04-24T09:21:09;8.95;;;2.80;;
67839;SDS011;54636;51.684;5.142;2023-04-24T09:23:34;7.68;;;1.75;;
67839;SDS011;54636;51.684;5.142;2023-04-24T09:26:01;12.27;;;2.85;;
67839;SDS011;54636;51.684;5.142;2023-04-24T09:28:34;12.70;;;2.53;;
67839;SDS011;54636;51.684;5.142;2023-04-24T09:33:38;11.73;;;3.20;;
67839;SDS011;54636;51.684;5.142;2023-04-24T09:36:04;11.30;;;2.28;;
67839;SDS011;54636;51.684;5.142;2023-04-24T09:38:34;5.47;;;1.90;;
67839;SDS011;54636;51.684;5.142;2023-04-24T09:41:03;8.32;;;2.15;;
67839;SDS011;54636;51.684;5.142;2023-04-24T09:43:33;8.30;;;2.25;;
67839;SDS011;54636;51.684;5.142;2023-04-24T09:46:06;9.65;;;3.05;;
67839;SDS011;54636;51.684;5.142;2023-04-24T09:48:35;7.20;;;1.92;;
67839;SDS011;54636;51.684;5.142;2023-04-24T09:51:02;7.57;;;2.72;;
67839;SDS011;54636;51.684;5.142;2023-04-24T09:53:31;5.00;;;1.40;;
67839;SDS011;54636;51.684;5.142;2023-04-24T09:56:07;7.88;;;2.08;;
67839;SDS011;54636;51.684;5.142;2023-04-24T09:58:34;7.40;;;1.88;;
67839;SDS011;54636;51.684;5.142;2023-04-24T10:01:01;7.28;;;1.65;;
67839;SDS011;54636;51.684;5.142;2023-04-24T10:03:29;6.88;;;1.52;;
67839;SDS011;54636;51.684;5.142;2023-04-24T10:06:02;9.65;;;2.03;;
67839;SDS011;54636;51.684;5.142;2023-04-24T10:08:34;10.60;;;2.05;;
67839;SDS011;54636;51.684;5.142;2023-04-24T10:11:00;5.95;;;1.40;;
67839;SDS011;54636;51.684;5.142;2023-04-24T10:13:26;2.38;;;1.02;;
67839;SDS011;54636;51.684;5.142;2023-04-24T10:15:53;4.43;;;1.20;;
67839;SDS011;54636;51.684;5.142;2023-04-24T10:18:19;2.05;;;0.77;;
67839;SDS011;54636;51.684;5.142;2023-04-24T10:20:46;6.53;;;1.42;;
67839;SDS011;54636;51.684;5.142;2023-04-24T10:23:12;3.55;;;1.00;;
67839;SDS011;54636;51.684;5.142;2023-04-24T10:25:37;7.43;;;1.38;;
67839;SDS011;54636;51.684;5.142;2023-04-24T10:28:03;1.20;;;0.60;;
67839;SDS011;54636;51.684;5.142;2023-04-24T10:30:30;1.65;;;0.85;;
67839;SDS011;54636;51.684;5.142;2023-04-24T10:33:00;2.35;;;1.00;;
67839;SDS011;54636;51.684;5.142;2023-04-24T10:35:29;4.43;;;0.85;;
67839;SDS011;54636;51.684;5.142;2023-04-24T10:37:57;6.32;;;0.93;;
67839;SDS011;54636;51.684;5.142;2023-04-24T10:40:27;5.13;;;0.93;;
67839;SDS011;54636;51.684;5.142;2023-04-24T10:42:56;2.22;;;0.90;;
67839;SDS011;54636;51.684;5.142;2023-04-24T10:45:22;1.58;;;0.70;;
67839;SDS011;54636;51.684;5.142;2023-04-24T10:47:58;3.40;;;1.20;;
67839;SDS011;54636;51.684;5.142;2023-04-24T10:50:29;9.27;;;1.08;;
67839;SDS011;54636;51.684;5.142;2023-04-24T10:53:07;5.22;;;1.02;;
67839;SDS011;54636;51.684;5.142;2023-04-24T10:58:12;3.25;;;1.10;;
67839;SDS011;54636;51.684;5.142;2023-04-24T11:00:39;2.97;;;0.70;;
67839;SDS011;54636;51.684;5.142;2023-04-24T11:03:07;1.75;;;0.60;;
67839;SDS011;54636;51.684;5.142;2023-04-24T11:05:52;2.50;;;0.80;;
67839;SDS011;54636;51.684;5.142;2023-04-24T11:08:24;4.07;;;1.20;;
67839;SDS011;54636;51.684;5.142;2023-04-24T11:13:22;6.40;;;1.00;;
67839;SDS011;54636;51.684;5.142;2023-04-24T11:18:37;5.03;;;1.20;;
67839;SDS011;54636;51.684;5.142;2023-04-24T11:21:11;1.73;;;1.00;;
67839;SDS011;54636;51.684;5.142;2023-04-24T11:23:42;3.60;;;1.40;;
67839;SDS011;54636;51.684;5.142;2023-04-24T11:26:11;4.60;;;1.05;;
67839;SDS011;54636;51.684;5.142;2023-04-24T11:28:43;6.95;;;0.90;;
67839;SDS011;54636;51.684;5.142;2023-04-24T11:34:10;5.80;;;1.77;;
67839;SDS011;54636;51.684;5.142;2023-04-24T11:36:37;5.80;;;0.85;;
67839;SDS011;54636;51.684;5.142;2023-04-24T11:39:03;7.50;;;1.50;;
67839;SDS011;54636;51.684;5.142;2023-04-24T11:41:29;6.57;;;1.27;;
67839;SDS011;54636;51.684;5.142;2023-04-24T11:43:55;2.40;;;1.10;;
67839;SDS011;54636;51.684;5.142;2023-04-24T11:46:21;3.63;;;0.90;;
67839;SDS011;54636;51.684;5.142;2023-04-24T11:48:47;7.53;;;1.58;;
67839;SDS011;54636;51.684;5.142;2023-04-24T11:51:13;3.08;;;1.10;;
67839;SDS011;54636;51.684;5.142;2023-04-24T11:53:39;2.55;;;0.90;;
67839;SDS011;54636;51.684;5.142;2023-04-24T11:56:05;3.40;;;1.08;;
67839;SDS011;54636;51.684;5.142;2023-04-24T11:58:40;2.92;;;0.85;;
67839;SDS011;54636;51.684;5.142;2023-04-24T12:01:05;0.90;;;0.80;;
67839;SDS011;54636;51.684;5.142;2023-04-24T12:03:31;6.60;;;1.73;;
67839;SDS011;54636;51.684;5.142;2023-04-24T12:06:06;4.22;;;1.00;;
67839;SDS011;54636;51.684;5.142;2023-04-24T12:08:33;3.88;;;0.98;;
67839;SDS011;54636;51.684;5.142;2023-04-24T12:11:02;3.50;;;1.10;;
67839;SDS011;54636;51.684;5.142;2023-04-24T12:13:29;3.70;;;1.00;;
67839;SDS011;54636;51.684;5.142;2023-04-24T12:15:59;4.80;;;1.20;;
67839;SDS011;54636;51.684;5.142;2023-04-24T12:18:25;3.53;;;1.85;;
67839;SDS011;54636;51.684;5.142;2023-04-24T12:20:51;7.22;;;1.15;;
67839;SDS011;54636;51.684;5.142;2023-04-24T12:23:16;3.33;;;1.08;;
67839;SDS011;54636;51.684;5.142;2023-04-24T12:25:59;1.25;;;0.73;;
67839;SDS011;54636;51.684;5.142;2023-04-24T12:28:34;4.07;;;1.27;;
67839;SDS011;54636;51.684;5.142;2023-04-24T12:31:01;4.55;;;1.00;;
67839;SDS011;54636;51.684;5.142;2023-04-24T12:33:27;1.48;;;1.05;;
67839;SDS011;54636;51.684;5.142;2023-04-24T12:35:52;5.22;;;1.13;;
67839;SDS011;54636;51.684;5.142;2023-04-24T12:38:21;7.25;;;1.05;;
67839;SDS011;54636;51.684;5.142;2023-04-24T12:41:00;4.95;;;1.50;;
67839;SDS011;54636;51.684;5.142;2023-04-24T12:43:33;4.72;;;1.17;;
67839;SDS011;54636;51.684;5.142;2023-04-24T12:45:59;3.45;;;1.13;;
67839;SDS011;54636;51.684;5.142;2023-04-24T12:48:25;5.35;;;1.10;;
67839;SDS011;54636;51.684;5.142;2023-04-24T12:50:51;2.17;;;1.52;;
67839;SDS011;54636;51.684;5.142;2023-04-24T12:53:17;5.45;;;1.30;;
67839;SDS011;54636;51.684;5.142;2023-04-24T12:55:43;3.92;;;1.42;;
67839;SDS011;54636;51.684;5.142;2023-04-24T12:58:09;2.45;;;1.02;;
67839;SDS011;54636;51.684;5.142;2023-04-24T13:00:35;5.72;;;1.55;;
67839;SDS011;54636;51.684;5.142;2023-04-24T13:03:01;2.80;;;1.40;;
67839;SDS011;54636;51.684;5.142;2023-04-24T13:05:27;3.90;;;1.10;;
67839;SDS011;54636;51.684;5.142;2023-04-24T13:07:52;3.33;;;1.25;;
67839;SDS011;54636;51.684;5.142;2023-04-24T13:10:18;4.78;;;1.40;;
67839;SDS011;54636;51.684;5.142;2023-04-24T13:12:44;1.35;;;1.02;;
67839;SDS011;54636;51.684;5.142;2023-04-24T13:15:11;3.05;;;1.30;;
67839;SDS011;54636;51.684;5.142;2023-04-24T13:17:36;5.75;;;1.10;;
67839;SDS011;54636;51.684;5.142;2023-04-24T13:20:02;4.07;;;1.20;;
67839;SDS011;54636;51.684;5.142;2023-04-24T13:22:28;2.00;;;1.27;;
67839;SDS011;54636;51.684;5.142;2023-04-24T13:24:53;2.85;;;0.90;;
67839;SDS011;54636;51.684;5.142;2023-04-24T13:27:19;3.55;;;0.80;;
67839;SDS011;54636;51.684;5.142;2023-04-24T13:29:45;1.40;;;0.47;;
67839;SDS011;54636;51.684;5.142;2023-04-24T13:32:10;1.65;;;0.63;;
67839;SDS011;54636;51.684;5.142;2023-04-24T13:34:36;2.40;;;0.88;;
67839;SDS011;54636;51.684;5.142;2023-04-24T13:37:02;1.55;;;1.00;;
67839;SDS011;54636;51.684;5.142;2023-04-24T13:39:32;1.30;;;0.50;;
67839;SDS011;54636;51.684;5.142;2023-04-24T13:41:58;2.17;;;0.82;;
67839;SDS011;54636;51.684;5.142;2023-04-24T13:44:23;1.25;;;0.80;;
67839;SDS011;54636;51.684;5.142;2023-04-24T13:46:50;6.72;;;1.38;;
67839;SDS011;54636;51.684;5.142;2023-04-24T13:49:19;1.75;;;0.90;;
67839;SDS011;54636;51.684;5.142;2023-04-24T13:51:45;2.80;;;1.10;;
67839;SDS011;54636;51.684;5.142;2023-04-24T13:54:11;2.33;;;1.02;;
67839;SDS011;54636;51.684;5.142;2023-04-24T13:56:36;3.28;;;1.25;;
67839;SDS011;54636;51.684;5.142;2023-04-24T13:59:02;4.57;;;1.20;;
67839;SDS011;54636;51.684;5.142;2023-04-24T14:01:27;3.28;;;1.77;;
67839;SDS011;54636;51.684;5.142;2023-04-24T14:03:53;6.60;;;1.55;;
67839;SDS011;54636;51.684;5.142;2023-04-24T14:06:20;3.72;;;1.27;;
67839;SDS011;54636;51.684;5.142;2023-04-24T14:08:46;4.25;;;1.67;;
67839;SDS011;54636;51.684;5.142;2023-04-24T14:11:12;4.15;;;1.40;;
67839;SDS011;54636;51.684;5.142;2023-04-24T14:13:38;4.10;;;1.55;;
67839;SDS011;54636;51.684;5.142;2023-04-24T14:16:07;6.20;;;1.83;;
67839;SDS011;54636;51.684;5.142;2023-04-24T14:18:32;5.53;;;1.55;;
67839;SDS011;54636;51.684;5.142;2023-04-24T14:20:58;5.38;;;1.70;;
67839;SDS011;54636;51.684;5.142;2023-04-24T14:23:24;7.57;;;2.08;;
67839;SDS011;54636;51.684;5.142;2023-04-24T14:25:49;2.17;;;1.52;;
67839;SDS011;54636;51.684;5.142;2023-04-24T14:28:17;7.30;;;2.08;;
67839;SDS011;54636;51.684;5.142;2023-04-24T14:30:43;8.07;;;2.10;;
67839;SDS011;54636;51.684;5.142;2023-04-24T14:33:09;2.78;;;1.38;;
67839;SDS011;54636;51.684;5.142;2023-04-24T14:35:35;1.08;;;0.98;;
67839;SDS011;54636;51.684;5.142;2023-04-24T14:38:01;1.77;;;0.98;;
67839;SDS011;54636;51.684;5.142;2023-04-24T14:40:26;2.80;;;1.42;;
67839;SDS011;54636;51.684;5.142;2023-04-24T14:42:51;7.97;;;1.90;;
67839;SDS011;54636;51.684;5.142;2023-04-24T14:45:17;5.35;;;1.63;;
67839;SDS011;54636;51.684;5.142;2023-04-24T14:47:43;2.47;;;1.50;;